createdAt,value
2022-10-29T00:08:46.465Z,11.48
2022-10-29T00:18:49.055Z,11.38
2022-10-29T00:28:56.828Z,11.32
2022-10-29T00:38:59.648Z,11.19
2022-10-29T00:49:02.960Z,11.16
2022-10-29T00:59:07.126Z,11.08
2022-10-29T01:09:09.744Z,10.99
2022-10-29T01:19:47.516Z,10.95
2022-10-29T01:30:20.535Z,10.92
2022-10-29T01:40:26.062Z,10.92
2022-10-29T01:50:29.776Z,10.85
2022-10-29T02:00:45.030Z,10.79
2022-10-29T02:11:12.117Z,10.66
2022-10-29T02:21:18.846Z,10.55
2022-10-29T02:31:21.338Z,10.43
2022-10-29T02:41:23.637Z,10.35
2022-10-29T02:51:25.813Z,10.27
2022-10-29T03:01:28.174Z,10.18
2022-10-29T03:11:31.282Z,10.19
2022-10-29T03:21:33.554Z,10.11
2022-10-29T03:31:35.736Z,10.04
2022-10-29T03:41:39.023Z,9.98
2022-10-29T03:51:42.427Z,9.95
2022-10-29T04:01:44.748Z,9.86
2022-10-29T04:11:47.813Z,9.84
2022-10-29T04:32:15.502Z,9.79
2022-10-29T04:42:18.972Z,9.76
2022-10-29T04:52:21.169Z,9.71
2022-10-29T05:02:23.349Z,9.65
2022-10-29T05:12:25.756Z,9.54
2022-10-29T05:22:29.124Z,9.49
2022-10-29T05:32:32.270Z,9.53
2022-10-29T05:42:38.311Z,9.48
2022-10-29T05:52:41.997Z,9.48
2022-10-29T06:02:44.991Z,9.46
2022-10-29T06:12:47.590Z,9.46
2022-10-29T06:22:58.398Z,9.45
2022-10-29T06:33:01.322Z,9.50
2022-10-29T06:43:06.783Z,9.58
2022-10-29T06:53:13.116Z,9.62
2022-10-29T07:03:18.263Z,9.69
2022-10-29T07:13:20.792Z,9.76
2022-10-29T07:23:26.459Z,9.91
2022-10-29T07:33:32.963Z,10.12
2022-10-29T07:43:35.386Z,10.36
2022-10-29T07:53:37.908Z,10.68
2022-10-29T08:03:40.499Z,11.12
2022-10-29T08:13:43.285Z,11.61
2022-10-29T08:23:46.800Z,12.15
2022-10-29T08:33:49.520Z,12.67
2022-10-29T08:44:28.884Z,13.21
2022-10-29T08:54:35.672Z,13.70
2022-10-29T09:04:38.993Z,14.16
2022-10-29T09:14:56.477Z,14.55
2022-10-29T09:25:24.246Z,14.95
2022-10-29T09:35:44.801Z,15.29
2022-10-29T09:46:13.395Z,15.68
2022-10-29T09:56:16.080Z,15.93
2022-10-29T10:06:18.580Z,16.20
2022-10-29T10:16:30.057Z,16.67
2022-10-29T10:26:44.727Z,17.13
2022-10-29T10:36:52.241Z,17.44
2022-10-29T10:46:58.534Z,17.66
2022-10-29T10:57:04.647Z,17.87
2022-10-29T11:07:13.064Z,18.01
2022-10-29T11:17:55.775Z,18.08
2022-10-29T11:28:15.806Z,18.27
2022-10-29T11:38:30.478Z,18.60
2022-10-29T11:48:50.334Z,18.96
2022-10-29T11:59:08.343Z,19.33
2022-10-29T12:09:37.584Z,19.63
2022-10-29T12:20:07.754Z,19.94
2022-10-29T12:30:14.746Z,20.23
2022-10-29T12:40:31.475Z,20.77
2022-10-29T12:51:07.478Z,20.91
2022-10-29T13:12:19.592Z,20.83
2022-10-29T13:22:55.263Z,20.89
2022-10-29T13:32:58.103Z,20.86
2022-10-29T13:43:06.476Z,20.82
2022-10-29T13:53:14.295Z,20.80
2022-10-29T14:03:21.588Z,20.84
2022-10-29T14:13:30.787Z,20.83
2022-10-29T14:23:34.251Z,20.87
2022-10-29T14:33:39.269Z,20.97
2022-10-29T14:43:42.926Z,20.68
2022-10-29T14:53:45.922Z,20.24
2022-10-29T15:03:48.587Z,19.84
2022-10-29T15:13:51.112Z,19.53
2022-10-29T15:23:59.191Z,19.22
2022-10-29T15:34:09.323Z,18.93
2022-10-29T15:44:40.876Z,18.62
2022-10-29T15:54:43.340Z,18.25
2022-10-29T16:04:45.921Z,17.84
2022-10-29T16:14:48.665Z,17.40
2022-10-29T16:24:51.152Z,16.97
2022-10-29T16:34:53.646Z,16.55
2022-10-29T16:44:56.306Z,16.19
2022-10-29T16:54:58.832Z,15.82
2022-10-29T17:05:01.321Z,15.42
2022-10-29T17:15:04.528Z,15.11
2022-10-29T17:25:07.415Z,14.83
2022-10-29T17:35:10.436Z,14.60
2022-10-29T17:45:13.866Z,14.38
2022-10-29T17:55:16.729Z,14.19
2022-10-29T18:05:19.384Z,14.01
2022-10-29T18:15:21.809Z,13.81
2022-10-29T18:25:24.495Z,13.63
2022-10-29T18:35:28.076Z,13.49
2022-10-29T18:45:30.702Z,13.35
2022-10-29T18:55:33.008Z,13.23
2022-10-29T19:05:36.095Z,13.10
2022-10-29T19:15:39.810Z,12.97
2022-10-29T19:25:42.362Z,12.81
2022-10-29T19:35:44.919Z,12.69
2022-10-29T19:45:47.275Z,12.54
2022-10-29T19:55:50.830Z,12.41
2022-10-29T20:05:55.590Z,12.30
2022-10-29T20:15:57.943Z,12.16
2022-10-29T20:26:00.377Z,12.05
2022-10-29T20:36:02.949Z,11.98
2022-10-29T20:46:05.598Z,11.90
2022-10-29T20:56:10.407Z,11.76
2022-10-29T21:06:17.691Z,11.67
2022-10-29T21:16:28.016Z,11.65
2022-10-29T21:26:30.299Z,11.69
2022-10-29T21:36:32.749Z,11.64
2022-10-29T21:46:35.592Z,11.57
2022-10-29T21:56:38.132Z,11.50
2022-10-29T22:06:40.381Z,11.45
2022-10-29T22:16:43.682Z,11.41
2022-10-29T22:26:46.425Z,11.42
2022-10-29T22:36:52.398Z,11.41
2022-10-29T22:46:54.770Z,11.38
2022-10-29T22:56:57.091Z,11.35
2022-10-29T23:07:02.146Z,11.25
2022-10-29T23:17:04.975Z,11.22
2022-10-29T23:27:07.292Z,11.19
2022-10-29T23:37:10.212Z,11.14
2022-10-29T23:47:12.883Z,11.09
2022-10-29T23:57:15.314Z,11.07
